Pagina principale
METAR-TAF:

METAR-TAF

Aeroporti :

Aeroporto Internazionale Principessa Giuliana

Sint Maarten, Antille olandesi

latitudine: 18-03N, longitudine: 063-07W, altezza: 4 m

Osservazione

Il bollettino è stato emesso 39 minuti fa, alle 23:00 UTC
Vento 8 kt da est/nord-est, variando fra nord/nord-est e est
Temperature 27°C
Umidità 79%
Pressione 1011 hPa
Visibilità 10 km o più
Poco nuvoloso ad un'altezza di 1800 ft

METAR: TNCM 202300Z 06008KT 020V080 9999 FEW018 27/23 Q1011 A2986 NOSIG

Ora: 19:39 (23:39 UTC)

Previsione

Il bollettino è stato emesso 5 ore e 59 minuti fa, alle 17:40 UTC
Previsione valida dal 20 alle 18 UTC al 21 alle 18 UTC
Vento 10 kt da est
Visibilità: 10 km
Nubi sparse ad un'altezza di 2000 ft
rovesci nelle vicinanze

TAF: TNCM 201740Z 2018/2118 08010KT P6SM VCSH SCT020

Osservazioni e previsioni meteorologiche di più di 4000 aeroporti (messaggi METAR e TAF).

Le stazioni disponibili sono rappresentate dai dischi gialli e rossi sulla carta.

Puntare il mouse per vedere il nome della stazione.

Clicca sopra per visualizzare le osservazioni e previsioni meteorologiche.

Per cambiare la mappa : fare clic sui pulsanti verdi con una croce nera per ingrandire, il pulsante verde con un trattino per diminuire, o sulla freccia verde per le mappe adiacenti.


METAR-TAF: